Time;durP1;ratioP1;P1;durP2;ratioP2;P2;SDS_P1;SDS_P2;PMS_P1;PMS_P2;Temp;Humidity;BMP_temperature;BMP_pressure;BME280_temperature;BME280_humidity;BME280_pressure;Samples;Min_cycle;Max_cycle;Signal;HPM_P1;HPM_P2
2021/03/19 00:02:01;;;;;;;22.10;11.75;;;2.60;99.90;;;;;;5117692;28;20218;-71
2021/03/19 00:04:29;;;;;;;16.38;11.23;;;2.60;99.90;;;;;;5117901;28;20210;-70
2021/03/19 00:06:58;;;;;;;19.48;12.00;;;2.70;99.90;;;;;;5120061;28;20191;-70
2021/03/19 00:09:25;;;;;;;17.50;11.13;;;2.60;99.90;;;;;;5117455;28;20197;-70
2021/03/19 00:11:52;;;;;;;19.55;11.98;;;2.60;99.90;;;;;;5119045;28;20198;-70
2021/03/19 00:14:19;;;;;;;19.42;10.82;;;2.50;99.90;;;;;;5118964;28;20225;-70
2021/03/19 00:16:45;;;;;;;13.55;10.55;;;2.50;99.90;;;;;;5117371;28;20214;-70
2021/03/19 00:19:11;;;;;;;20.73;10.90;;;2.60;99.90;;;;;;5118391;28;20275;-70
2021/03/19 00:21:38;;;;;;;25.67;12.30;;;2.60;99.90;;;;;;5118836;28;20649;-70
2021/03/19 00:24:06;;;;;;;23.40;12.90;;;2.60;99.90;;;;;;5120909;27;20205;-70
2021/03/19 00:26:36;;;;;;;17.92;11.15;;;2.70;99.90;;;;;;5118106;28;20174;-70
2021/03/19 00:29:05;;;;;;;18.80;10.82;;;2.60;99.90;;;;;;5117955;28;20188;-70
2021/03/19 00:31:32;;;;;;;19.88;11.07;;;2.60;99.90;;;;;;5117105;28;20241;-70
2021/03/19 00:33:58;;;;;;;15.88;9.88;;;2.60;99.90;;;;;;5117245;28;20202;-71
2021/03/19 00:36:25;;;;;;;20.98;10.95;;;2.50;99.90;;;;;;5118041;28;20206;-71
2021/03/19 00:38:52;;;;;;;16.63;11.55;;;2.50;99.90;;;;;;5118347;27;20245;-70
2021/03/19 00:41:20;;;;;;;19.70;11.20;;;2.50;99.90;;;;;;5118207;27;20226;-70
2021/03/19 00:43:48;;;;;;;15.52;9.77;;;2.50;99.90;;;;;;5117810;28;20190;-71
2021/03/19 00:46:14;;;;;;;19.20;10.77;;;2.50;99.90;;;;;;5118238;28;20553;-70
2021/03/19 00:48:42;;;;;;;27.05;11.40;;;2.50;99.90;;;;;;5118306;28;20259;-71
2021/03/19 00:51:13;;;;;;;15.32;9.63;;;2.50;99.90;;;;;;5116673;28;20227;-71
2021/03/19 00:53:40;;;;;;;15.18;10.40;;;2.50;99.90;;;;;;5117859;28;20189;-71
2021/03/19 00:56:10;;;;;;;16.27;9.55;;;2.40;99.90;;;;;;5117683;28;20171;-71
2021/03/19 00:58:36;;;;;;;17.75;10.68;;;2.40;99.90;;;;;;5117393;28;20577;-70
2021/03/19 01:01:04;;;;;;;14.63;10.43;;;2.40;99.90;;;;;;5117690;28;20240;-70
2021/03/19 01:03:31;;;;;;;18.23;10.75;;;2.40;99.90;;;;;;5116583;28;20198;-71
2021/03/19 01:05:59;;;;;;;17.58;10.68;;;2.40;99.90;;;;;;5117319;28;20641;-71
2021/03/19 01:08:27;;;;;;;19.70;10.23;;;2.40;99.90;;;;;;5117699;27;20653;-71
2021/03/19 01:10:57;;;;;;;16.88;11.38;;;2.40;99.90;;;;;;5117354;28;20209;-71
2021/03/19 01:13:25;;;;;;;20.85;11.75;;;2.50;99.90;;;;;;5117652;27;20211;-70
2021/03/19 01:15:55;;;;;;;18.10;11.30;;;2.50;99.90;;;;;;5116971;28;20609;-71
2021/03/19 01:18:26;;;;;;;15.40;10.85;;;2.50;99.90;;;;;;5116873;28;20536;-71
2021/03/19 01:20:54;;;;;;;16.13;10.80;;;2.50;99.90;;;;;;5116622;28;20563;-70
2021/03/19 01:23:21;;;;;;;19.00;11.80;;;2.50;99.90;;;;;;5117015;28;20524;-70
2021/03/19 01:25:47;;;;;;;19.45;12.05;;;2.50;99.90;;;;;;5116744;28;20187;-71
2021/03/19 01:28:17;;;;;;;20.02;12.30;;;2.60;99.90;;;;;;5116965;28;20179;-71
2021/03/19 01:30:44;;;;;;;18.75;12.00;;;2.60;99.90;;;;;;5116613;28;20726;-71
2021/03/19 01:33:11;;;;;;;16.27;12.00;;;2.60;99.90;;;;;;5116790;28;20193;-71
2021/03/19 01:35:40;;;;;;;21.00;12.45;;;2.60;99.90;;;;;;5116811;28;20633;-71
2021/03/19 01:38:09;;;;;;;22.33;13.10;;;2.50;99.90;;;;;;5117126;28;20213;-70
2021/03/19 01:40:41;;;;;;;18.58;12.20;;;2.60;99.90;;;;;;5116645;28;20194;-70
2021/03/19 01:43:10;;;;;;;22.13;10.93;;;2.60;99.90;;;;;;5115868;28;20176;-70
2021/03/19 01:46:14;;;;;;;21.92;13.70;;;2.60;99.90;;;;;;5116041;28;20228;-70
2021/03/19 01:49:18;;;;;;;18.88;13.55;;;2.60;99.90;;;;;;5116637;28;20202;-70
2021/03/19 01:52:22;;;;;;;19.45;13.55;;;2.60;99.90;;;;;;5116793;28;20183;-70
2021/03/19 01:55:29;;;;;;;28.55;14.68;;;2.40;99.90;;;;;;5116871;28;20175;-71
2021/03/19 01:58:37;;;;;;;20.85;14.27;;;2.40;99.90;;;;;;5116245;28;20195;-70
2021/03/19 02:01:41;;;;;;;21.30;14.07;;;2.40;99.90;;;;;;5117038;28;20653;-70
2021/03/19 02:04:45;;;;;;;24.30;15.07;;;2.40;99.90;;;;;;5116488;28;20194;-71
2021/03/19 02:07:48;;;;;;;26.70;15.18;;;2.40;99.90;;;;;;5117035;28;20194;-70
2021/03/19 02:10:54;;;;;;;27.27;15.80;;;2.40;99.90;;;;;;5116291;28;20217;-70
2021/03/19 02:13:59;;;;;;;26.92;15.18;;;2.30;99.90;;;;;;5116555;28;20187;-70
2021/03/19 02:17:03;;;;;;;20.05;14.38;;;2.30;99.90;;;;;;5116037;28;20201;-70
2021/03/19 02:20:06;;;;;;;23.02;15.48;;;2.40;99.90;;;;;;5116034;28;20203;-70
2021/03/19 02:23:12;;;;;;;20.77;15.20;;;2.30;99.90;;;;;;5116404;28;20730;-70
2021/03/19 02:26:16;;;;;;;21.65;15.52;;;2.30;99.90;;;;;;5116086;28;20602;-70
2021/03/19 02:29:20;;;;;;;24.25;16.15;;;2.40;99.90;;;;;;5116621;28;20717;-71
2021/03/19 02:32:13;;;;;;;24.30;15.85;;;2.30;99.90;;;;;;5116407;28;20735;-70
2021/03/19 02:35:08;;;;;;;31.65;17.48;;;2.40;99.90;;;;;;5112232;28;20217;-70
2021/03/19 02:37:36;;;;;;;24.38;17.05;;;2.30;99.90;;;;;;5116808;28;20638;-71
2021/03/19 02:40:09;;;;;;;26.50;16.70;;;2.30;99.90;;;;;;5116372;27;20583;-70
2021/03/19 02:42:36;;;;;;;22.92;16.73;;;2.40;99.90;;;;;;5116163;28;20194;-71
2021/03/19 02:45:05;;;;;;;28.52;18.70;;;2.40;99.90;;;;;;5116356;28;20193;-71
2021/03/19 02:47:31;;;;;;;30.55;18.20;;;2.40;99.90;;;;;;5116098;28;20187;-71
2021/03/19 02:49:58;;;;;;;27.67;17.30;;;2.40;99.90;;;;;;5114811;28;20230;-71
2021/03/19 02:52:25;;;;;;;30.73;19.80;;;2.30;99.90;;;;;;5116145;28;20191;-71
2021/03/19 02:54:52;;;;;;;41.53;24.55;;;2.30;99.90;;;;;;5115621;28;20202;-71
2021/03/19 02:57:19;;;;;;;31.38;19.52;;;2.40;99.90;;;;;;5115611;28;20192;-70
2021/03/19 02:59:51;;;;;;;31.38;19.73;;;2.30;99.90;;;;;;5116321;28;20580;-70
2021/03/19 03:02:17;;;;;;;28.15;17.63;;;2.30;99.90;;;;;;5115403;28;20210;-70
2021/03/19 03:04:44;;;;;;;30.38;19.25;;;2.40;99.90;;;;;;5115352;28;20190;-71
2021/03/19 03:07:40;;;;;;;25.45;17.40;;;2.40;99.90;;;;;;5114889;28;20193;-71
2021/03/19 03:10:10;;;;;;;30.42;19.23;;;2.40;99.90;;;;;;5111058;28;20194;-70
2021/03/19 03:12:37;;;;;;;33.40;18.23;;;2.40;99.90;;;;;;5114842;28;20195;-71
2021/03/19 03:15:08;;;;;;;28.77;19.38;;;2.40;99.90;;;;;;5115051;28;20191;-71
2021/03/19 03:17:34;;;;;;;33.83;19.20;;;2.50;99.90;;;;;;5114899;28;20235;-71
2021/03/19 03:20:00;;;;;;;29.80;19.83;;;2.40;99.90;;;;;;5115641;28;20702;-71
2021/03/19 03:22:27;;;;;;;29.67;17.63;;;2.40;99.90;;;;;;5115125;28;20222;-71
2021/03/19 03:24:54;;;;;;;34.42;17.95;;;2.40;99.90;;;;;;5115586;28;20232;-71
2021/03/19 03:27:23;;;;;;;25.95;17.02;;;2.40;99.90;;;;;;5115760;28;20182;-71
2021/03/19 03:29:50;;;;;;;28.65;18.55;;;2.40;99.90;;;;;;5115650;28;20198;-70
2021/03/19 03:32:17;;;;;;;28.90;17.65;;;2.50;99.90;;;;;;5115049;28;20197;-71
2021/03/19 03:34:44;;;;;;;30.45;19.00;;;2.40;99.90;;;;;;5115354;28;20183;-70
2021/03/19 03:37:12;;;;;;;35.63;18.40;;;2.40;99.90;;;;;;5115875;28;20195;-71
2021/03/19 03:39:39;;;;;;;29.10;18.27;;;2.40;99.90;;;;;;5115567;28;20209;-70
2021/03/19 03:42:11;;;;;;;30.33;19.63;;;2.50;99.90;;;;;;5114974;28;20232;-71
2021/03/19 03:44:38;;;;;;;30.27;18.05;;;2.50;99.90;;;;;;5115691;28;20279;-71
2021/03/19 03:47:05;;;;;;;33.08;22.15;;;2.40;99.90;;;;;;5115573;28;20199;-70
2021/03/19 03:49:34;;;;;;;26.50;17.30;;;2.50;99.90;;;;;;5114876;28;20229;-71
2021/03/19 03:52:00;;;;;;;29.15;19.52;;;2.50;99.90;;;;;;5115401;28;20190;-71
2021/03/19 03:54:28;;;;;;;27.60;17.10;;;2.50;99.90;;;;;;5115223;28;20570;-71
2021/03/19 03:56:56;;;;;;;30.27;17.40;;;2.60;99.90;;;;;;5115087;28;20198;-70
2021/03/19 03:59:22;;;;;;;29.65;17.80;;;2.60;99.90;;;;;;5113955;28;20191;-71
2021/03/19 04:01:49;;;;;;;28.52;18.77;;;2.50;99.90;;;;;;5114990;28;20226;-71
2021/03/19 04:04:16;;;;;;;29.13;18.25;;;2.60;99.90;;;;;;5114888;28;20210;-71
2021/03/19 04:06:42;;;;;;;29.55;20.02;;;2.60;99.90;;;;;;5118227;28;20673;-71
2021/03/19 04:09:09;;;;;;;27.63;18.30;;;2.50;99.90;;;;;;5117226;28;20198;-71
2021/03/19 04:11:39;;;;;;;27.80;18.20;;;2.50;99.90;;;;;;5119078;28;20727;-71
2021/03/19 04:14:06;;;;;;;30.48;18.60;;;2.40;99.90;;;;;;5118566;28;20191;-71
2021/03/19 04:16:33;;;;;;;29.60;17.95;;;2.40;99.90;;;;;;5119299;28;20203;-71
2021/03/19 04:19:00;;;;;;;30.38;17.95;;;2.30;99.90;;;;;;5119653;28;20186;-71
2021/03/19 04:21:30;;;;;;;27.60;18.23;;;2.40;99.90;;;;;;5119610;27;20301;-71
2021/03/19 04:23:58;;;;;;;26.98;17.00;;;2.50;99.90;;;;;;5118795;28;20243;-71
2021/03/19 04:26:32;;;;;;;25.45;17.88;;;2.60;99.90;;;;;;5118532;28;20243;-71
2021/03/19 04:29:03;;;;;;;28.50;16.85;;;2.60;99.90;;;;;;5118513;27;20179;-71
2021/03/19 04:31:31;;;;;;;29.23;17.48;;;2.50;99.90;;;;;;5118440;28;20221;-70
2021/03/19 04:33:57;;;;;;;31.75;19.00;;;2.30;99.90;;;;;;5119352;28;20194;-71
2021/03/19 04:36:45;;;;;;;32.33;18.00;;;2.50;99.90;;;;;;5118827;28;20246;-70
2021/03/19 04:39:33;;;;;;;28.88;19.77;;;2.60;99.90;;;;;;5118770;28;20203;-71
2021/03/19 04:42:02;;;;;;;26.50;17.63;;;2.70;99.90;;;;;;5118078;28;20218;-71
2021/03/19 04:44:36;;;;;;;27.58;17.80;;;2.70;99.90;;;;;;5118442;28;20558;-71
2021/03/19 04:47:02;;;;;;;35.28;20.25;;;2.70;99.90;;;;;;5118972;27;20221;-70
2021/03/19 04:49:29;;;;;;;35.75;19.42;;;2.70;99.90;;;;;;5117498;27;20233;-71
2021/03/19 04:51:55;;;;;;;26.13;16.38;;;2.70;99.90;;;;;;5117225;28;20185;-70
2021/03/19 04:54:22;;;;;;;30.75;17.40;;;2.70;99.90;;;;;;5118830;27;20206;-70
2021/03/19 04:56:50;;;;;;;31.38;18.27;;;2.60;99.90;;;;;;5117577;28;20222;-70
2021/03/19 04:59:16;;;;;;;31.67;19.73;;;2.70;99.90;;;;;;5118828;28;20186;-71
2021/03/19 05:01:55;;;;;;;37.03;18.50;;;2.70;99.90;;;;;;5118830;28;20565;-70
2021/03/19 05:04:23;;;;;;;28.42;18.75;;;2.60;99.90;;;;;;5118567;27;20186;-70
2021/03/19 05:06:51;;;;;;;26.23;17.48;;;2.60;99.90;;;;;;5117708;27;20663;-71
2021/03/19 05:09:21;;;;;;;28.95;17.83;;;2.60;99.90;;;;;;5117365;28;20296;-71
2021/03/19 05:11:49;;;;;;;33.13;20.08;;;2.60;99.90;;;;;;5117531;28;20202;-70
2021/03/19 05:14:18;;;;;;;28.05;17.70;;;2.60;99.90;;;;;;5118260;28;20195;-70
2021/03/19 05:16:50;;;;;;;29.15;16.75;;;2.80;99.90;;;;;;5117064;28;20209;-70
2021/03/19 05:19:17;;;;;;;26.70;17.30;;;2.90;99.90;;;;;;5117842;28;20209;-71
2021/03/19 05:21:45;;;;;;;28.05;19.35;;;2.90;99.90;;;;;;5116357;27;20677;-70
2021/03/19 05:24:13;;;;;;;25.38;16.50;;;2.90;99.90;;;;;;5118204;28;20606;-70
2021/03/19 05:26:42;;;;;;;29.45;17.17;;;2.90;99.90;;;;;;5118441;28;20599;-70
2021/03/19 05:29:10;;;;;;;27.48;17.92;;;2.90;99.90;;;;;;5118001;28;20197;-70
2021/03/19 05:31:39;;;;;;;28.80;17.25;;;2.90;99.90;;;;;;5118227;28;20302;-70
2021/03/19 05:34:10;;;;;;;29.00;18.08;;;2.80;99.90;;;;;;5118120;28;20230;-70
2021/03/19 05:36:37;;;;;;;31.73;19.42;;;2.80;99.90;;;;;;5118699;27;20546;-70
2021/03/19 05:39:09;;;;;;;37.95;23.30;;;2.80;99.90;;;;;;5118036;28;20179;-70
2021/03/19 05:41:40;;;;;;;26.08;17.33;;;2.80;99.90;;;;;;5117525;28;20218;-70
2021/03/19 05:44:20;;;;;;;27.42;19.08;;;2.80;99.90;;;;;;5117805;28;20207;-70
2021/03/19 05:46:49;;;;;;;28.77;18.77;;;2.80;99.90;;;;;;5117784;28;20208;-70
2021/03/19 05:49:20;;;;;;;27.98;18.80;;;2.80;99.90;;;;;;5117891;27;20203;-71
2021/03/19 05:51:50;;;;;;;32.38;19.15;;;2.80;99.90;;;;;;5117308;28;20214;-70
2021/03/19 05:54:45;;;;;;;35.35;18.77;;;2.80;99.90;;;;;;5117153;28;20573;-70
2021/03/19 05:57:22;;;;;;;28.50;17.73;;;2.80;99.90;;;;;;5117030;28;20573;-70
2021/03/19 05:59:54;;;;;;;30.35;17.00;;;2.90;99.90;;;;;;5117353;28;20590;-71
2021/03/19 06:02:31;;;;;;;25.83;17.73;;;2.80;99.90;;;;;;5117218;28;20215;-70
2021/03/19 06:05:20;;;;;;;30.42;18.25;;;2.80;99.90;;;;;;5116797;28;20173;-70
2021/03/19 06:07:53;;;;;;;27.10;17.27;;;2.80;99.90;;;;;;5117216;27;20213;-70
2021/03/19 06:10:39;;;;;;;30.30;19.33;;;2.80;99.90;;;;;;5117145;28;20209;-70
2021/03/19 06:13:12;;;;;;;33.88;19.00;;;2.80;99.90;;;;;;5116383;28;20195;-70
2021/03/19 06:15:46;;;;;;;28.48;16.77;;;2.90;99.90;;;;;;5115463;28;20201;-71
2021/03/19 06:18:39;;;;;;;29.75;17.75;;;2.90;99.90;;;;;;5115872;28;20581;-70
2021/03/19 06:21:09;;;;;;;33.90;17.75;;;2.80;99.90;;;;;;5116847;28;20175;-70
2021/03/19 06:23:46;;;;;;;27.85;18.40;;;2.70;99.90;;;;;;5116704;28;20214;-70
2021/03/19 06:26:25;;;;;;;32.88;18.55;;;2.60;99.90;;;;;;5117036;28;20209;-70
2021/03/19 06:29:18;;;;;;;29.52;18.05;;;2.70;99.90;;;;;;5115795;28;20181;-70
2021/03/19 06:32:21;;;;;;;27.05;15.25;;;2.70;99.90;;;;;;5115683;28;20306;-70
2021/03/19 06:35:10;;;;;;;28.55;16.98;;;2.70;99.90;;;;;;5115764;28;20194;-71
2021/03/19 06:37:48;;;;;;;28.25;16.95;;;2.60;99.90;;;;;;5116560;28;20223;-70
2021/03/19 06:40:37;;;;;;;28.05;15.77;;;2.60;99.90;;;;;;5116638;28;20251;-70
2021/03/19 06:43:18;;;;;;;27.77;16.70;;;2.60;99.90;;;;;;5116246;28;20206;-70
2021/03/19 06:45:49;;;;;;;26.35;15.40;;;2.40;99.90;;;;;;5115959;28;20214;-71
2021/03/19 06:48:35;;;;;;;28.52;16.27;;;2.60;99.90;;;;;;5116026;28;20191;-71
2021/03/19 06:51:08;;;;;;;29.02;17.05;;;2.70;99.90;;;;;;5116453;28;20219;-71
2021/03/19 06:53:37;;;;;;;24.95;15.63;;;2.70;99.90;;;;;;5116408;28;20268;-70
2021/03/19 06:56:23;;;;;;;31.27;18.38;;;2.70;99.90;;;;;;5116398;28;20257;-70
2021/03/19 06:58:52;;;;;;;28.98;18.02;;;2.70;99.90;;;;;;5116097;28;20179;-70
2021/03/19 07:01:22;;;;;;;30.95;18.50;;;2.70;99.90;;;;;;5116588;28;20285;-71
2021/03/19 07:04:24;;;;;;;30.50;18.00;;;2.80;99.90;;;;;;5116197;28;20214;-70
2021/03/19 07:07:01;;;;;;;35.70;17.80;;;3.00;99.90;;;;;;5099078;28;20201;-70
2021/03/19 07:09:50;;;;;;;36.88;21.27;;;3.00;99.90;;;;;;5114379;28;20747;-70
2021/03/19 07:12:22;;;;;;;38.47;21.13;;;3.10;99.90;;;;;;5114652;28;20210;-70
2021/03/19 07:15:07;;;;;;;32.72;19.85;;;3.10;99.90;;;;;;5114761;28;20200;-70
2021/03/19 07:17:56;;;;;;;42.67;23.42;;;2.90;99.90;;;;;;5116127;28;20187;-70
2021/03/19 07:21:06;;;;;;;48.90;25.95;;;3.00;99.90;;;;;;5113385;28;20167;-70
2021/03/19 07:23:56;;;;;;;46.20;24.42;;;3.20;99.90;;;;;;5111493;28;20245;-70
2021/03/19 07:26:31;;;;;;;36.30;20.90;;;3.30;99.90;;;;;;5116573;28;20178;-71
2021/03/19 07:29:23;;;;;;;40.38;22.48;;;3.20;99.90;;;;;;5115533;28;20185;-70
2021/03/19 07:31:49;;;;;;;37.17;21.02;;;3.20;99.90;;;;;;5114849;28;20610;-71
2021/03/19 07:34:55;;;;;;;41.65;24.00;;;3.20;99.90;;;;;;5114271;28;20237;-71
2021/03/19 07:37:59;;;;;;;33.65;19.55;;;3.20;99.90;;;;;;5114549;28;20532;-71
2021/03/19 07:40:32;;;;;;;39.53;21.35;;;3.20;99.90;;;;;;5116137;28;20622;-70
2021/03/19 07:43:39;;;;;;;47.97;26.15;;;3.20;99.90;;;;;;5118438;28;20228;-70
2021/03/19 07:46:20;;;;;;;43.47;23.30;;;3.40;99.90;;;;;;5102202;28;20223;-70
2021/03/19 07:49:01;;;;;;;51.33;24.73;;;3.50;99.90;;;;;;5119153;28;20221;-70
2021/03/19 07:52:04;;;;;;;39.38;24.20;;;3.50;99.90;;;;;;5120036;28;20216;-70
2021/03/19 07:54:33;;;;;;;54.55;25.63;;;3.70;99.90;;;;;;5119075;28;20210;-70
2021/03/19 07:57:00;;;;;;;52.45;27.23;;;3.60;99.90;;;;;;5118344;28;20197;-70
2021/03/19 07:59:54;;;;;;;46.03;27.63;;;3.60;99.90;;;;;;5118442;28;20198;-70
2021/03/19 08:02:41;;;;;;;49.38;29.52;;;3.70;99.90;;;;;;5118673;28;20210;-71
2021/03/19 08:05:13;;;;;;;50.38;28.65;;;3.90;99.90;;;;;;5119477;28;20269;-70
2021/03/19 08:07:52;;;;;;;45.60;24.42;;;3.70;99.90;;;;;;5118704;28;20711;-70
2021/03/19 08:10:37;;;;;;;37.97;22.90;;;3.60;99.90;;;;;;5117878;28;20183;-70
2021/03/19 08:13:33;;;;;;;41.50;25.50;;;3.50;99.90;;;;;;5118216;28;20194;-71
2021/03/19 08:16:26;;;;;;;39.35;25.02;;;3.50;99.90;;;;;;5101739;28;20198;-69
2021/03/19 08:19:13;;;;;;;38.13;23.55;;;3.60;99.90;;;;;;5118603;28;20657;-70
2021/03/19 08:21:58;;;;;;;39.50;21.50;;;3.50;99.90;;;;;;5108242;28;20203;-70
2021/03/19 08:24:43;;;;;;;40.70;24.13;;;3.60;99.90;;;;;;5114183;28;20278;-70
2021/03/19 08:27:34;;;;;;;35.50;21.25;;;3.60;99.90;;;;;;5118347;28;20622;-70
2021/03/19 08:30:28;;;;;;;33.53;20.98;;;3.50;99.90;;;;;;5119967;28;20712;-71
2021/03/19 08:33:05;;;;;;;30.02;19.10;;;3.50;99.90;;;;;;5118596;28;20195;-70
2021/03/19 08:35:38;;;;;;;33.55;21.10;;;3.60;99.90;;;;;;5117423;28;20205;-70
2021/03/19 08:38:32;;;;;;;37.47;20.10;;;3.70;99.90;;;;;;5110071;28;20299;-70
2021/03/19 08:41:07;;;;;;;34.13;20.00;;;3.90;99.90;;;;;;5099380;28;20180;-70
2021/03/19 08:43:58;;;;;;;33.72;19.70;;;3.80;99.90;;;;;;5102472;28;20206;-70
2021/03/19 08:46:48;;;;;;;31.77;16.98;;;4.00;99.90;;;;;;5116577;28;20193;-70
2021/03/19 08:49:25;;;;;;;33.30;18.55;;;4.10;99.90;;;;;;5116370;28;20197;-70
2021/03/19 08:51:55;;;;;;;28.13;17.90;;;4.00;99.90;;;;;;5115778;28;20234;-70
2021/03/19 08:54:26;;;;;;;34.63;20.92;;;3.90;99.90;;;;;;5099565;28;20208;-71
2021/03/19 08:57:15;;;;;;;27.55;16.98;;;3.90;99.90;;;;;;5116492;28;20551;-70
2021/03/19 08:59:42;;;;;;;25.95;16.98;;;3.90;99.90;;;;;;5116412;28;20179;-71
2021/03/19 09:02:17;;;;;;;30.83;18.00;;;4.00;99.90;;;;;;5116687;28;20193;-70
2021/03/19 09:05:29;;;;;;;29.63;19.25;;;4.00;99.90;;;;;;5117408;27;20186;-70
2021/03/19 09:08:14;;;;;;;29.20;17.00;;;4.30;99.90;;;;;;5100580;27;20229;-70
2021/03/19 09:10:58;;;;;;;26.90;16.45;;;4.30;99.90;;;;;;5117125;28;20197;-71
2021/03/19 09:13:25;;;;;;;26.25;16.17;;;4.20;99.90;;;;;;5117223;28;20196;-70
2021/03/19 09:15:54;;;;;;;20.92;14.15;;;4.10;99.90;;;;;;5117063;28;20229;-70
2021/03/19 09:18:46;;;;;;;24.50;16.10;;;4.10;99.90;;;;;;5116746;28;20191;-69
2021/03/19 09:21:30;;;;;;;23.13;13.73;;;4.30;99.90;;;;;;5116851;28;20570;-71
2021/03/19 09:24:00;;;;;;;30.98;26.42;;;4.20;99.90;;;;;;5116441;28;20681;-69
2021/03/19 09:26:36;;;;;;;21.17;13.55;;;4.00;99.90;;;;;;5117152;28;20260;-70
2021/03/19 09:29:24;;;;;;;18.17;12.15;;;4.00;99.90;;;;;;5117257;28;20556;-71
2021/03/19 09:31:59;;;;;;;21.38;13.15;;;4.00;99.90;;;;;;5116916;28;20669;-70
2021/03/19 09:34:44;;;;;;;19.85;12.90;;;4.10;99.90;;;;;;5117624;28;20193;-70
2021/03/19 09:37:31;;;;;;;16.98;10.73;;;4.00;99.90;;;;;;5117069;27;20209;-70
2021/03/19 09:40:06;;;;;;;22.85;14.73;;;4.00;99.90;;;;;;5117615;28;20199;-71
2021/03/19 09:42:41;;;;;;;21.30;13.85;;;4.20;99.90;;;;;;5117797;28;20237;-70
2021/03/19 09:45:10;;;;;;;31.88;15.50;;;4.40;99.90;;;;;;5117138;28;20214;-72
2021/03/19 09:47:43;;;;;;;28.02;14.25;;;4.50;99.90;;;;;;5116785;28;20219;-71
2021/03/19 09:50:28;;;;;;;20.15;14.65;;;4.50;99.90;;;;;;5115656;28;20226;-69
2021/03/19 09:52:54;;;;;;;21.63;14.68;;;4.60;99.90;;;;;;5116100;28;20705;-69
2021/03/19 09:55:35;;;;;;;20.70;12.85;;;4.60;99.90;;;;;;5105510;27;20599;-69
2021/03/19 09:58:22;;;;;;;22.02;13.10;;;4.60;99.90;;;;;;5097873;28;20194;-70
2021/03/19 10:00:51;;;;;;;24.70;15.23;;;4.40;99.90;;;;;;5107763;28;20207;-71
2021/03/19 10:03:18;;;;;;;17.80;12.27;;;4.30;99.90;;;;;;5116344;28;20219;-71
2021/03/19 10:05:46;;;;;;;19.85;12.60;;;4.30;99.90;;;;;;5116027;28;20567;-71
2021/03/19 10:08:28;;;;;;;26.42;15.60;;;4.30;99.90;;;;;;5115746;28;20191;-71
2021/03/19 10:11:15;;;;;;;22.67;15.80;;;4.40;99.90;;;;;;5115827;28;20560;-70
2021/03/19 10:13:43;;;;;;;28.60;13.88;;;4.70;99.90;;;;;;5115843;28;20214;-70
2021/03/19 10:16:21;;;;;;;19.38;14.07;;;5.00;99.90;;;;;;5115456;28;20225;-70
2021/03/19 10:18:48;;;;;;;16.67;11.75;;;4.90;99.90;;;;;;5114830;28;20273;-71
2021/03/19 10:21:23;;;;;;;21.40;14.20;;;4.70;99.90;;;;;;5114908;28;20195;-72
2021/03/19 10:24:00;;;;;;;22.67;13.50;;;4.70;99.90;;;;;;5114811;28;20221;-70
2021/03/19 10:26:34;;;;;;;20.90;14.43;;;4.70;99.90;;;;;;5115396;28;20225;-70
2021/03/19 10:29:12;;;;;;;18.77;10.30;;;4.80;99.90;;;;;;5114854;27;20661;-72
2021/03/19 10:31:44;;;;;;;16.30;12.18;;;4.70;99.90;;;;;;5115965;28;20206;-70
2021/03/19 10:34:25;;;;;;;13.48;10.07;;;4.90;99.90;;;;;;5116163;27;20573;-70
2021/03/19 10:37:14;;;;;;;13.40;9.15;;;4.70;99.90;;;;;;5114797;28;20206;-70
2021/03/19 10:40:03;;;;;;;13.65;8.38;;;4.80;99.90;;;;;;5115518;28;20167;-71
2021/03/19 10:42:53;;;;;;;10.13;7.40;;;5.00;99.90;;;;;;5113858;27;20738;-71
2021/03/19 10:45:28;;;;;;;9.02;7.90;;;5.00;99.90;;;;;;5094081;28;20555;-70
2021/03/19 10:48:13;;;;;;;10.90;7.55;;;5.30;99.90;;;;;;5094032;28;20191;-70
2021/03/19 10:51:03;;;;;;;9.90;7.57;;;5.50;99.90;;;;;;5113894;28;20309;-70
2021/03/19 10:54:03;;;;;;;11.70;9.70;;;5.50;99.90;;;;;;5115687;28;20615;-71
2021/03/19 10:56:30;;;;;;;12.93;9.65;;;5.70;99.90;;;;;;5113087;28;20210;-71
2021/03/19 10:59:19;;;;;;;13.00;8.73;;;5.50;99.90;;;;;;5115582;28;20198;-72
2021/03/19 11:01:50;;;;;;;10.98;8.70;;;5.40;99.90;;;;;;5115296;28;20186;-70
2021/03/19 11:04:35;;;;;;;11.13;9.20;;;5.50;99.90;;;;;;5114625;28;20230;-70
2021/03/19 11:07:26;;;;;;;12.25;9.55;;;5.50;99.90;;;;;;5114468;28;20671;-71
2021/03/19 11:10:14;;;;;;;14.15;10.38;;;5.70;99.90;;;;;;5114716;28;20256;-71
2021/03/19 11:12:56;;;;;;;18.42;12.40;;;5.40;99.90;;;;;;5114577;28;20689;-71
2021/03/19 11:15:23;;;;;;;12.77;8.77;;;5.50;99.90;;;;;;5113979;28;20206;-72
2021/03/19 11:18:14;;;;;;;12.57;9.13;;;5.60;99.90;;;;;;5114571;28;20545;-71
2021/03/19 11:20:42;;;;;;;12.50;9.38;;;5.60;99.90;;;;;;5114251;28;20186;-71
2021/03/19 11:23:36;;;;;;;13.63;10.13;;;5.90;99.90;;;;;;5113928;28;20225;-71
2021/03/19 11:26:29;;;;;;;9.10;8.20;;;6.40;99.90;;;;;;5114001;28;20195;-70
2021/03/19 11:29:18;;;;;;;11.23;8.02;;;6.30;99.90;;;;;;5114427;28;20210;-70
2021/03/19 11:32:01;;;;;;;10.45;6.95;;;6.60;99.90;;;;;;5114102;28;20287;-71
2021/03/19 11:34:39;;;;;;;8.70;7.38;;;6.70;99.90;;;;;;5113800;28;20191;-71
2021/03/19 11:37:23;;;;;;;13.55;8.23;;;6.50;99.90;;;;;;5114672;28;20213;-72
2021/03/19 11:39:54;;;;;;;10.13;7.65;;;5.90;99.90;;;;;;5114333;28;20206;-69
2021/03/19 11:42:33;;;;;;;10.68;6.70;;;6.10;99.90;;;;;;5114030;28;20263;-70
2021/03/19 11:45:08;;;;;;;11.50;8.50;;;5.80;99.90;;;;;;5113925;28;20559;-71
2021/03/19 11:47:38;;;;;;;11.32;8.43;;;5.90;99.90;;;;;;5113839;28;20179;-71
2021/03/19 11:50:22;;;;;;;8.88;6.55;;;6.10;99.90;;;;;;5113757;28;20598;-69
2021/03/19 11:53:01;;;;;;;10.82;7.15;;;6.10;99.90;;;;;;5114473;28;20561;-69
2021/03/19 11:55:42;;;;;;;9.60;7.10;;;6.10;99.90;;;;;;5113771;28;20543;-70
2021/03/19 11:58:10;;;;;;;6.22;5.60;;;6.40;99.90;;;;;;5113861;28;20533;-69
2021/03/19 12:00:39;;;;;;;8.50;7.50;;;6.70;99.90;;;;;;5113684;28;20199;-70
2021/03/19 12:03:15;;;;;;;11.18;7.15;;;6.70;99.90;;;;;;5099007;28;20265;-70
2021/03/19 12:05:42;;;;;;;8.52;6.90;;;6.50;99.90;;;;;;5113395;28;20198;-69
2021/03/19 12:08:08;;;;;;;7.85;6.68;;;6.50;99.90;;;;;;5113953;28;20198;-70
2021/03/19 12:10:35;;;;;;;6.43;5.78;;;7.00;99.90;;;;;;5113398;28;20187;-70
2021/03/19 12:13:06;;;;;;;6.40;5.68;;;7.10;99.90;;;;;;5113379;28;20195;-69
2021/03/19 12:15:36;;;;;;;9.63;6.35;;;7.90;99.90;;;;;;5113370;28;20201;-70
2021/03/19 12:18:03;;;;;;;6.72;5.50;;;8.70;99.90;;;;;;5113377;28;20194;-70
2021/03/19 12:20:29;;;;;;;5.13;4.63;;;9.20;99.90;;;;;;5113270;28;20199;-69
2021/03/19 12:22:56;;;;;;;4.70;4.30;;;8.80;99.90;;;;;;5113343;28;20227;-70
2021/03/19 12:25:26;;;;;;;5.72;5.07;;;8.30;99.90;;;;;;5113781;28;20194;-70
2021/03/19 12:27:53;;;;;;;5.97;5.10;;;8.80;99.90;;;;;;5116206;28;20637;-70
2021/03/19 12:30:22;;;;;;;6.88;5.40;;;9.10;99.90;;;;;;5117962;28;20211;-69
2021/03/19 12:32:50;;;;;;;5.85;5.25;;;9.30;99.90;;;;;;5117332;28;20631;-71
2021/03/19 12:35:17;;;;;;;5.28;4.78;;;8.40;99.90;;;;;;5117439;28;20202;-71
2021/03/19 12:37:51;;;;;;;6.10;5.50;;;8.50;99.90;;;;;;5117406;27;20190;-70
2021/03/19 12:40:21;;;;;;;5.63;4.78;;;7.80;99.90;;;;;;5115166;28;20198;-71
2021/03/19 12:42:48;;;;;;;5.68;5.00;;;7.10;99.90;;;;;;5116683;28;20198;-70
2021/03/19 12:45:19;;;;;;;7.68;5.43;;;6.90;99.90;;;;;;5117908;28;20244;-70
2021/03/19 12:47:48;;;;;;;6.40;5.68;;;7.30;99.90;;;;;;5120517;28;20195;-71
2021/03/19 12:50:18;;;;;;;7.35;6.50;;;7.30;99.90;;;;;;5118230;28;20226;-69
2021/03/19 12:52:45;;;;;;;6.55;5.28;;;7.40;99.90;;;;;;5120097;28;20649;-69
2021/03/19 12:55:11;;;;;;;9.30;6.05;;;7.30;99.90;;;;;;5120607;28;20285;-69
2021/03/19 12:57:42;;;;;;;9.88;6.97;;;7.50;99.90;;;;;;5122862;28;20232;-69
2021/03/19 13:00:11;;;;;;;8.70;5.32;;;7.30;99.90;;;;;;5122427;28;20194;-70
2021/03/19 13:02:40;;;;;;;9.00;6.85;;;7.10;99.90;;;;;;5119507;28;20637;-70
2021/03/19 13:05:07;;;;;;;10.40;6.60;;;7.10;99.90;;;;;;5118801;28;20191;-70
2021/03/19 13:07:34;;;;;;;8.50;6.00;;;7.10;99.90;;;;;;5119203;28;20634;-70
2021/03/19 13:10:00;;;;;;;10.93;7.78;;;6.70;99.90;;;;;;5116784;28;20186;-70
2021/03/19 13:12:31;;;;;;;10.52;7.93;;;6.30;99.90;;;;;;5116982;28;20265;-70
2021/03/19 13:14:57;;;;;;;53.17;20.90;;;5.90;99.90;;;;;;5117317;28;20201;-70
2021/03/19 13:17:26;;;;;;;10.40;8.63;;;5.80;99.90;;;;;;5117982;28;20199;-70
2021/03/19 13:19:53;;;;;;;11.07;8.30;;;5.30;99.90;;;;;;5117558;28;20669;-70
2021/03/19 13:22:20;;;;;;;20.75;12.98;;;5.20;99.90;;;;;;5117573;28;20193;-70
2021/03/19 13:24:46;;;;;;;12.23;7.53;;;5.20;99.90;;;;;;5119684;28;20214;-70
2021/03/19 13:27:13;;;;;;;9.75;7.88;;;5.10;99.90;;;;;;5122719;27;20654;-70